sensor_id;sensor_type;location;lat;lon;timestamp;pressure;altitude;pressure_sealevel;temperature;humidity
5879;BME280;2965;42.640;23.370;2022-08-18T00:01:12;94385.63;;;21.78;100.00
5879;BME280;2965;42.640;23.370;2022-08-18T00:03:38;94384.59;;;21.84;100.00
5879;BME280;2965;42.640;23.370;2022-08-18T00:06:05;94388.84;;;21.85;100.00
5879;BME280;2965;42.640;23.370;2022-08-18T00:08:31;94384.81;;;21.78;100.00
5879;BME280;2965;42.640;23.370;2022-08-18T00:10:56;94389.78;;;21.69;100.00
5879;BME280;2965;42.640;23.370;2022-08-18T00:13:22;94390.31;;;21.66;100.00
5879;BME280;2965;42.640;23.370;2022-08-18T00:15:48;94387.56;;;21.56;100.00
5879;BME280;2965;42.640;23.370;2022-08-18T00:18:14;94393.94;;;21.55;100.00
5879;BME280;2965;42.640;23.370;2022-08-18T00:20:40;94388.16;;;21.63;100.00
5879;BME280;2965;42.640;23.370;2022-08-18T00:23:05;94387.56;;;21.56;100.00
5879;BME280;2965;42.640;23.370;2022-08-18T00:25:31;94382.19;;;21.46;100.00
5879;BME280;2965;42.640;23.370;2022-08-18T00:27:56;94383.28;;;20.96;100.00
5879;BME280;2965;42.640;23.370;2022-08-18T00:30:22;94385.69;;;20.97;100.00
5879;BME280;2965;42.640;23.370;2022-08-18T00:32:54;94384.94;;;21.02;100.00
5879;BME280;2965;42.640;23.370;2022-08-18T00:35:23;94382.28;;;21.02;100.00
5879;BME280;2965;42.640;23.370;2022-08-18T00:37:53;94382.22;;;20.97;100.00
5879;BME280;2965;42.640;23.370;2022-08-18T00:40:23;94379.16;;;21.10;100.00
5879;BME280;2965;42.640;23.370;2022-08-18T00:42:54;94384.75;;;21.08;100.00
5879;BME280;2965;42.640;23.370;2022-08-18T00:45:27;94389.16;;;20.98;100.00
5879;BME280;2965;42.640;23.370;2022-08-18T00:47:53;94387.28;;;20.98;100.00
5879;BME280;2965;42.640;23.370;2022-08-18T00:50:27;94393.47;;;21.04;100.00
5879;BME280;2965;42.640;23.370;2022-08-18T00:52:58;94393.22;;;21.05;100.00
5879;BME280;2965;42.640;23.370;2022-08-18T00:55:26;94400.88;;;21.02;100.00
5879;BME280;2965;42.640;23.370;2022-08-18T00:58:01;94398.44;;;20.95;100.00
5879;BME280;2965;42.640;23.370;2022-08-18T01:00:27;94408.16;;;20.84;100.00
5879;BME280;2965;42.640;23.370;2022-08-18T01:02:57;94399.06;;;20.80;100.00
5879;BME280;2965;42.640;23.370;2022-08-18T01:05:47;94406.56;;;20.83;100.00
5879;BME280;2965;42.640;23.370;2022-08-18T01:08:16;94406.56;;;20.83;100.00
5879;BME280;2965;42.640;23.370;2022-08-18T01:10:42;94404.47;;;20.85;100.00
5879;BME280;2965;42.640;23.370;2022-08-18T01:13:08;94403.75;;;20.95;100.00
5879;BME280;2965;42.640;23.370;2022-08-18T01:15:34;94409.53;;;20.87;100.00
5879;BME280;2965;42.640;23.370;2022-08-18T01:18:03;94413.47;;;20.84;100.00
5879;BME280;2965;42.640;23.370;2022-08-18T01:23:46;94404.63;;;20.79;100.00
5879;BME280;2965;42.640;23.370;2022-08-18T01:26:14;94411.81;;;20.78;100.00
5879;BME280;2965;42.640;23.370;2022-08-18T01:28:43;94400.81;;;20.70;100.00
5879;BME280;2965;42.640;23.370;2022-08-18T01:31:11;94401.06;;;20.68;100.00
5879;BME280;2965;42.640;23.370;2022-08-18T01:33:43;94395.72;;;20.63;100.00
5879;BME280;2965;42.640;23.370;2022-08-18T01:36:17;94403.72;;;20.68;100.00
5879;BME280;2965;42.640;23.370;2022-08-18T01:38:49;94398.53;;;20.78;100.00
5879;BME280;2965;42.640;23.370;2022-08-18T01:41:16;94397.41;;;20.74;100.00
5879;BME280;2965;42.640;23.370;2022-08-18T01:43:43;94401.81;;;20.63;100.00
5879;BME280;2965;42.640;23.370;2022-08-18T01:46:09;94395.56;;;20.53;100.00
5879;BME280;2965;42.640;23.370;2022-08-18T01:48:36;94394.84;;;20.40;100.00
5879;BME280;2965;42.640;23.370;2022-08-18T01:51:03;94386.34;;;20.38;100.00
5879;BME280;2965;42.640;23.370;2022-08-18T01:53:30;94384.94;;;20.53;100.00
5879;BME280;2965;42.640;23.370;2022-08-18T01:55:55;94382.19;;;20.26;100.00
5879;BME280;2965;42.640;23.370;2022-08-18T01:58:21;94383.28;;;20.08;100.00
5879;BME280;2965;42.640;23.370;2022-08-18T02:00:54;94389.03;;;20.22;100.00
5879;BME280;2965;42.640;23.370;2022-08-18T02:03:30;94389.69;;;20.29;100.00
5879;BME280;2965;42.640;23.370;2022-08-18T02:06:00;94377.13;;;20.24;100.00
5879;BME280;2965;42.640;23.370;2022-08-18T02:08:25;94385.91;;;20.25;100.00
5879;BME280;2965;42.640;23.370;2022-08-18T02:10:51;94389.34;;;20.25;100.00
5879;BME280;2965;42.640;23.370;2022-08-18T02:13:17;94393.69;;;20.31;100.00
5879;BME280;2965;42.640;23.370;2022-08-18T02:15:43;94397.75;;;20.39;100.00
5879;BME280;2965;42.640;23.370;2022-08-18T02:18:22;94399.94;;;20.42;100.00
5879;BME280;2965;42.640;23.370;2022-08-18T02:20:49;94403.41;;;20.42;100.00
5879;BME280;2965;42.640;23.370;2022-08-18T02:23:14;94400.63;;;20.32;100.00
5879;BME280;2965;42.640;23.370;2022-08-18T02:25:41;94389.34;;;20.25;100.00
5879;BME280;2965;42.640;23.370;2022-08-18T02:28:07;94393.00;;;20.19;100.00
5879;BME280;2965;42.640;23.370;2022-08-18T02:30:33;94404.28;;;20.31;100.00
5879;BME280;2965;42.640;23.370;2022-08-18T02:32:59;94397.88;;;20.27;100.00
5879;BME280;2965;42.640;23.370;2022-08-18T02:35:26;94391.28;;;20.30;100.00
5879;BME280;2965;42.640;23.370;2022-08-18T02:37:51;94393.69;;;20.31;100.00
5879;BME280;2965;42.640;23.370;2022-08-18T02:40:17;94402.22;;;20.33;100.00
5879;BME280;2965;42.640;23.370;2022-08-18T02:42:44;94389.47;;;20.35;100.00
5879;BME280;2965;42.640;23.370;2022-08-18T02:45:10;94389.16;;;20.32;100.00
5879;BME280;2965;42.640;23.370;2022-08-18T02:47:37;94385.78;;;20.36;100.00
5879;BME280;2965;42.640;23.370;2022-08-18T02:50:03;94403.41;;;20.42;100.00
5879;BME280;2965;42.640;23.370;2022-08-18T02:52:28;94394.00;;;20.35;100.00
5879;BME280;2965;42.640;23.370;2022-08-18T02:54:58;94394.78;;;20.35;100.00
5879;BME280;2965;42.640;23.370;2022-08-18T02:57:26;94391.72;;;20.44;100.00
5879;BME280;2965;42.640;23.370;2022-08-18T02:59:51;94394.78;;;20.35;100.00
5879;BME280;2965;42.640;23.370;2022-08-18T03:02:17;94402.09;;;20.23;100.00
5879;BME280;2965;42.640;23.370;2022-08-18T03:04:43;94398.81;;;20.16;100.00
5879;BME280;2965;42.640;23.370;2022-08-18T03:07:08;94398.47;;;20.12;100.00
5879;BME280;2965;42.640;23.370;2022-08-18T03:09:33;94396.09;;;20.11;100.00
5879;BME280;2965;42.640;23.370;2022-08-18T03:11:59;94401.13;;;20.12;100.00
5879;BME280;2965;42.640;23.370;2022-08-18T03:14:25;94396.50;;;20.03;100.00
5879;BME280;2965;42.640;23.370;2022-08-18T03:16:50;94396.97;;;20.00;100.00
5879;BME280;2965;42.640;23.370;2022-08-18T03:19:16;94396.97;;;20.00;100.00
5879;BME280;2965;42.640;23.370;2022-08-18T03:21:44;94406.25;;;19.97;100.00
5879;BME280;2965;42.640;23.370;2022-08-18T03:24:11;94406.78;;;19.99;100.00
5879;BME280;2965;42.640;23.370;2022-08-18T03:26:41;94406.53;;;20.01;100.00
5879;BME280;2965;42.640;23.370;2022-08-18T03:29:08;94403.88;;;20.01;100.00
5879;BME280;2965;42.640;23.370;2022-08-18T03:31:34;94410.81;;;20.02;100.00
5879;BME280;2965;42.640;23.370;2022-08-18T03:34:04;94411.94;;;20.06;100.00
5879;BME280;2965;42.640;23.370;2022-08-18T03:36:31;94414.50;;;20.01;100.00
5879;BME280;2965;42.640;23.370;2022-08-18T03:39:00;94411.78;;;19.96;100.00
5879;BME280;2965;42.640;23.370;2022-08-18T03:41:27;94410.66;;;19.91;100.00
5879;BME280;2965;42.640;23.370;2022-08-18T03:43:52;94411.63;;;19.85;100.00
5879;BME280;2965;42.640;23.370;2022-08-18T03:46:19;94410.50;;;19.98;100.00
5879;BME280;2965;42.640;23.370;2022-08-18T03:48:47;94416.75;;;20.09;100.00
5879;BME280;2965;42.640;23.370;2022-08-18T03:51:20;94419.63;;;20.24;100.00
5879;BME280;2965;42.640;23.370;2022-08-18T03:53:47;94417.03;;;20.29;100.00
5879;BME280;2965;42.640;23.370;2022-08-18T03:56:18;94412.84;;;20.33;100.00
5879;BME280;2965;42.640;23.370;2022-08-18T03:58:46;94419.28;;;20.37;100.00
5879;BME280;2965;42.640;23.370;2022-08-18T04:01:16;94419.88;;;20.45;100.00
5879;BME280;2965;42.640;23.370;2022-08-18T04:03:42;94417.78;;;20.47;100.00
5879;BME280;2965;42.640;23.370;2022-08-18T04:06:20;94420.53;;;20.52;100.00
5879;BME280;2965;42.640;23.370;2022-08-18T04:08:49;94425.91;;;20.57;100.00
5879;BME280;2965;42.640;23.370;2022-08-18T04:11:14;94427.59;;;20.63;100.00
5879;BME280;2965;42.640;23.370;2022-08-18T04:13:40;94425.97;;;20.62;100.00
5879;BME280;2965;42.640;23.370;2022-08-18T04:16:06;94428.69;;;20.67;100.00
5879;BME280;2965;42.640;23.370;2022-08-18T04:18:31;94424.56;;;20.76;100.00
5879;BME280;2965;42.640;23.370;2022-08-18T04:21:02;94429.31;;;20.74;100.00
5879;BME280;2965;42.640;23.370;2022-08-18T04:23:28;94427.72;;;20.73;100.00
5879;BME280;2965;42.640;23.370;2022-08-18T04:25:58;94431.22;;;20.79;100.00
5879;BME280;2965;42.640;23.370;2022-08-18T04:28:25;94434.69;;;20.79;100.00
5879;BME280;2965;42.640;23.370;2022-08-18T04:30:51;94434.00;;;20.67;100.00
5879;BME280;2965;42.640;23.370;2022-08-18T04:33:17;94444.13;;;20.70;100.00
5879;BME280;2965;42.640;23.370;2022-08-18T04:35:43;94441.47;;;20.70;100.00
5879;BME280;2965;42.640;23.370;2022-08-18T04:38:10;94440.31;;;20.61;100.00
5879;BME280;2965;42.640;23.370;2022-08-18T04:40:36;94461.09;;;20.64;100.00
5879;BME280;2965;42.640;23.370;2022-08-18T04:43:01;94450.50;;;20.69;100.00
5879;BME280;2965;42.640;23.370;2022-08-18T04:45:27;94455.56;;;20.71;100.00
5879;BME280;2965;42.640;23.370;2022-08-18T04:47:53;94441.41;;;20.65;100.00
5879;BME280;2965;42.640;23.370;2022-08-18T04:50:19;94448.16;;;20.73;100.00
5879;BME280;2965;42.640;23.370;2022-08-18T04:52:44;94448.53;;;20.81;100.00
5879;BME280;2965;42.640;23.370;2022-08-18T04:55:28;94449.66;;;21.34;100.00
5879;BME280;2965;42.640;23.370;2022-08-18T04:57:55;94449.09;;;21.91;100.00
5879;BME280;2965;42.640;23.370;2022-08-18T05:00:20;94451.00;;;22.38;100.00
5879;BME280;2965;42.640;23.370;2022-08-18T05:02:46;94463.97;;;22.72;100.00
5879;BME280;2965;42.640;23.370;2022-08-18T05:05:13;94464.28;;;22.86;100.00
5879;BME280;2965;42.640;23.370;2022-08-18T05:07:44;94461.47;;;23.03;100.00
5879;BME280;2965;42.640;23.370;2022-08-18T05:10:10;94466.81;;;23.08;100.00
5879;BME280;2965;42.640;23.370;2022-08-18T05:12:37;94470.56;;;23.17;100.00
5879;BME280;2965;42.640;23.370;2022-08-18T05:15:06;94469.50;;;23.28;100.00
5879;BME280;2965;42.640;23.370;2022-08-18T05:17:36;94472.75;;;23.35;100.00
5879;BME280;2965;42.640;23.370;2022-08-18T05:20:07;94472.75;;;23.35;100.00
5879;BME280;2965;42.640;23.370;2022-08-18T05:22:40;94466.88;;;23.38;100.00
5879;BME280;2965;42.640;23.370;2022-08-18T05:25:09;94465.31;;;23.48;100.00
5879;BME280;2965;42.640;23.370;2022-08-18T05:27:36;94482.91;;;23.44;100.00
5879;BME280;2965;42.640;23.370;2022-08-18T05:30:04;94469.03;;;23.47;100.00
5879;BME280;2965;42.640;23.370;2022-08-18T05:32:33;94462.13;;;23.56;100.00
5879;BME280;2965;42.640;23.370;2022-08-18T05:35:06;94466.41;;;23.67;100.00
5879;BME280;2965;42.640;23.370;2022-08-18T05:40:19;94476.50;;;23.50;100.00
5879;BME280;2965;42.640;23.370;2022-08-18T05:42:47;94473.81;;;23.39;100.00
5879;BME280;2965;42.640;23.370;2022-08-18T05:45:16;94480.97;;;23.13;100.00
5879;BME280;2965;42.640;23.370;2022-08-18T05:47:41;94485.97;;;23.00;100.00
5879;BME280;2965;42.640;23.370;2022-08-18T05:50:13;94482.56;;;23.14;100.00
5879;BME280;2965;42.640;23.370;2022-08-18T05:55:16;94470.13;;;23.51;100.00
5879;BME280;2965;42.640;23.370;2022-08-18T05:58:20;94476.56;;;23.65;100.00
5879;BME280;2965;42.640;23.370;2022-08-18T06:00:53;94473.91;;;23.80;100.00
5879;BME280;2965;42.640;23.370;2022-08-18T06:03:33;94477.09;;;24.03;100.00
5879;BME280;2965;42.640;23.370;2022-08-18T06:06:10;94478.69;;;24.24;100.00
5879;BME280;2965;42.640;23.370;2022-08-18T06:08:44;94477.09;;;24.44;100.00
5879;BME280;2965;42.640;23.370;2022-08-18T06:11:11;94473.06;;;24.51;100.00
5879;BME280;2965;42.640;23.370;2022-08-18T06:13:39;94475.47;;;24.42;100.00
5879;BME280;2965;42.640;23.370;2022-08-18T06:16:21;94468.50;;;24.57;100.00
5879;BME280;2965;42.640;23.370;2022-08-18T06:19:15;94470.63;;;24.60;100.00
5879;BME280;2965;42.640;23.370;2022-08-18T06:21:53;94468.47;;;24.72;100.00
5879;BME280;2965;42.640;23.370;2022-08-18T06:27:30;94464.44;;;24.80;100.00
5879;BME280;2965;42.640;23.370;2022-08-18T06:30:20;94468.41;;;24.92;100.00
5879;BME280;2965;42.640;23.370;2022-08-18T06:35:58;94482.44;;;24.23;100.00
5879;BME280;2965;42.640;23.370;2022-08-18T06:41:22;94477.09;;;24.54;100.00
5879;BME280;2965;42.640;23.370;2022-08-18T06:46:22;94470.16;;;24.22;100.00
5879;BME280;2965;42.640;23.370;2022-08-18T06:48:54;94463.19;;;24.41;100.00
5879;BME280;2965;42.640;23.370;2022-08-18T06:51:22;94466.66;;;24.42;100.00
5879;BME280;2965;42.640;23.370;2022-08-18T06:54:04;94460.56;;;23.96;100.00
5879;BME280;2965;42.640;23.370;2022-08-18T06:56:44;94454.69;;;23.94;100.00
5879;BME280;2965;42.640;23.370;2022-08-18T07:01:47;94452.78;;;24.45;100.00
5879;BME280;2965;42.640;23.370;2022-08-18T07:04:38;94453.00;;;24.59;100.00
5879;BME280;2965;42.640;23.370;2022-08-18T07:07:28;94444.16;;;24.69;100.00
5879;BME280;2965;42.640;23.370;2022-08-18T07:09:54;94442.50;;;24.78;100.00
5879;BME280;2965;42.640;23.370;2022-08-18T07:12:23;94443.25;;;24.94;100.00
5879;BME280;2965;42.640;23.370;2022-08-18T07:14:55;94438.94;;;25.03;100.00
5879;BME280;2965;42.640;23.370;2022-08-18T07:17:33;94439.44;;;25.15;100.00
5879;BME280;2965;42.640;23.370;2022-08-18T07:20:03;94443.66;;;25.26;100.00
5879;BME280;2965;42.640;23.370;2022-08-18T07:22:30;94426.97;;;25.39;100.00
5879;BME280;2965;42.640;23.370;2022-08-18T07:25:00;94431.50;;;25.44;99.39
5879;BME280;2965;42.640;23.370;2022-08-18T07:27:48;94429.59;;;25.45;100.00
5879;BME280;2965;42.640;23.370;2022-08-18T07:33:17;94425.72;;;25.66;99.34
5879;BME280;2965;42.640;23.370;2022-08-18T07:35:44;94438.50;;;25.79;89.91
5879;BME280;2965;42.640;23.370;2022-08-18T07:40:54;94431.94;;;25.96;86.78
5879;BME280;2965;42.640;23.370;2022-08-18T07:43:39;94433.44;;;26.07;86.69
5879;BME280;2965;42.640;23.370;2022-08-18T07:46:18;94432.78;;;26.20;88.60
5879;BME280;2965;42.640;23.370;2022-08-18T07:48:45;94432.69;;;26.30;86.29
5879;BME280;2965;42.640;23.370;2022-08-18T07:53:59;94432.59;;;26.40;82.80
5879;BME280;2965;42.640;23.370;2022-08-18T07:56:36;94434.56;;;26.59;86.52
5879;BME280;2965;42.640;23.370;2022-08-18T07:59:23;94438.44;;;26.72;82.81
5879;BME280;2965;42.640;23.370;2022-08-18T08:07:23;94432.56;;;26.94;76.81
5879;BME280;2965;42.640;23.370;2022-08-18T08:15:36;94439.22;;;27.20;76.44
5879;BME280;2965;42.640;23.370;2022-08-18T08:23:21;94440.38;;;27.52;72.86
5879;BME280;2965;42.640;23.370;2022-08-18T08:26:07;94437.63;;;27.57;72.92
5879;BME280;2965;42.640;23.370;2022-08-18T08:33:57;94426.44;;;27.87;68.89
5879;BME280;2965;42.640;23.370;2022-08-18T08:36:38;94429.25;;;27.96;68.63
5879;BME280;2965;42.640;23.370;2022-08-18T08:39:25;94427.13;;;28.12;70.09
5879;BME280;2965;42.640;23.370;2022-08-18T08:41:59;94427.94;;;28.26;69.00
5879;BME280;2965;42.640;23.370;2022-08-18T08:44:29;94428.19;;;28.44;70.29
5879;BME280;2965;42.640;23.370;2022-08-18T08:47:03;94438.16;;;28.43;62.86
5879;BME280;2965;42.640;23.370;2022-08-18T08:49:45;94423.81;;;28.48;63.72
5879;BME280;2965;42.640;23.370;2022-08-18T08:52:24;94421.03;;;28.53;64.84
5879;BME280;2965;42.640;23.370;2022-08-18T08:54:55;94431.09;;;28.61;66.02
5879;BME280;2965;42.640;23.370;2022-08-18T08:57:26;94430.00;;;28.62;68.04
5879;BME280;2965;42.640;23.370;2022-08-18T08:59:55;94420.91;;;28.72;68.59
5879;BME280;2965;42.640;23.370;2022-08-18T09:02:33;94436.47;;;28.88;65.54
5879;BME280;2965;42.640;23.370;2022-08-18T09:05:10;94425.84;;;28.97;65.21
5879;BME280;2965;42.640;23.370;2022-08-18T09:15:54;94417.34;;;29.54;63.44
5879;BME280;2965;42.640;23.370;2022-08-18T09:23:49;94402.41;;;29.70;59.78
5879;BME280;2965;42.640;23.370;2022-08-18T09:26:40;94405.13;;;29.70;58.44
5879;BME280;2965;42.640;23.370;2022-08-18T09:29:16;94402.53;;;29.87;57.03
5879;BME280;2965;42.640;23.370;2022-08-18T09:31:45;94395.81;;;29.99;55.15
5879;BME280;2965;42.640;23.370;2022-08-18T09:39:32;94392.69;;;30.36;62.31
5879;BME280;2965;42.640;23.370;2022-08-18T09:42:34;94386.94;;;30.60;59.53
5879;BME280;2965;42.640;23.370;2022-08-18T09:45:07;94392.00;;;30.62;54.81
5879;BME280;2965;42.640;23.370;2022-08-18T10:00:18;94367.59;;;31.50;57.50
5879;BME280;2965;42.640;23.370;2022-08-18T10:05:25;94364.09;;;31.41;49.09
5879;BME280;2965;42.640;23.370;2022-08-18T10:16:05;94356.13;;;31.97;49.33
5879;BME280;2965;42.640;23.370;2022-08-18T10:21:16;94356.84;;;32.23;53.91
5879;BME280;2965;42.640;23.370;2022-08-18T10:29:05;94344.72;;;32.29;51.31
5879;BME280;2965;42.640;23.370;2022-08-18T10:37:01;94346.09;;;32.82;48.21
5879;BME280;2965;42.640;23.370;2022-08-18T10:44:40;94337.88;;;32.32;48.28
5879;BME280;2965;42.640;23.370;2022-08-18T10:47:09;94333.00;;;32.84;46.84
5879;BME280;2965;42.640;23.370;2022-08-18T10:49:47;94329.25;;;33.06;43.66
5879;BME280;2965;42.640;23.370;2022-08-18T10:58:03;94334.53;;;33.24;45.63
5879;BME280;2965;42.640;23.370;2022-08-18T11:06:37;94327.00;;;33.29;44.72
5879;BME280;2965;42.640;23.370;2022-08-18T11:09:03;94321.63;;;33.42;40.96
5879;BME280;2965;42.640;23.370;2022-08-18T11:11:35;94312.34;;;33.84;48.03
5879;BME280;2965;42.640;23.370;2022-08-18T11:19:38;94309.84;;;34.37;39.57
5879;BME280;2965;42.640;23.370;2022-08-18T11:22:05;94313.91;;;34.19;39.00
5879;BME280;2965;42.640;23.370;2022-08-18T11:24:31;94309.06;;;34.36;37.32
5879;BME280;2965;42.640;23.370;2022-08-18T11:29:30;94313.63;;;34.57;39.57
5879;BME280;2965;42.640;23.370;2022-08-18T11:34:42;94314.91;;;34.26;39.46
5879;BME280;2965;42.640;23.370;2022-08-18T11:39:56;94316.53;;;34.27;38.35
5879;BME280;2965;42.640;23.370;2022-08-18T11:42:34;94303.75;;;33.95;38.60
5879;BME280;2965;42.640;23.370;2022-08-18T11:45:11;94301.38;;;34.14;38.95
5879;BME280;2965;42.640;23.370;2022-08-18T11:48:01;94301.38;;;34.38;41.55
5879;BME280;2965;42.640;23.370;2022-08-18T11:50:45;94301.84;;;34.77;39.11
5879;BME280;2965;42.640;23.370;2022-08-18T11:53:21;94300.94;;;34.98;37.40
5879;BME280;2965;42.640;23.370;2022-08-18T12:06:27;94281.94;;;34.73;40.32
5879;BME280;2965;42.640;23.370;2022-08-18T12:11:23;94271.56;;;35.56;39.69
5879;BME280;2965;42.640;23.370;2022-08-18T12:13:58;94266.69;;;35.77;38.35
5879;BME280;2965;42.640;23.370;2022-08-18T12:18:57;94267.97;;;35.96;37.35
5879;BME280;2965;42.640;23.370;2022-08-18T12:21:22;94270.84;;;36.03;38.65
5879;BME280;2965;42.640;23.370;2022-08-18T12:23:47;94274.44;;;36.38;35.85
5879;BME280;2965;42.640;23.370;2022-08-18T12:26:13;94266.22;;;36.51;33.67
5879;BME280;2965;42.640;23.370;2022-08-18T12:28:39;94267.78;;;36.20;35.95
5879;BME280;2965;42.640;23.370;2022-08-18T12:31:06;94267.78;;;36.52;34.58
5879;BME280;2965;42.640;23.370;2022-08-18T12:33:32;94259.56;;;36.83;34.81
5879;BME280;2965;42.640;23.370;2022-08-18T12:35:57;94268.38;;;36.77;32.61
5879;BME280;2965;42.640;23.370;2022-08-18T12:38:23;94263.72;;;36.77;32.19
5879;BME280;2965;42.640;23.370;2022-08-18T12:40:49;94257.94;;;36.63;32.32
5879;BME280;2965;42.640;23.370;2022-08-18T12:43:14;94266.50;;;36.46;32.37
5879;BME280;2965;42.640;23.370;2022-08-18T12:45:40;94254.44;;;36.47;32.43
5879;BME280;2965;42.640;23.370;2022-08-18T12:48:06;94261.88;;;36.66;33.66
5879;BME280;2965;42.640;23.370;2022-08-18T12:50:33;94263.00;;;36.80;33.22
5879;BME280;2965;42.640;23.370;2022-08-18T12:52:58;94257.31;;;37.05;32.71
5879;BME280;2965;42.640;23.370;2022-08-18T12:55:24;94255.25;;;36.82;34.11
5879;BME280;2965;42.640;23.370;2022-08-18T12:57:50;94257.19;;;36.47;33.26
5879;BME280;2965;42.640;23.370;2022-08-18T13:00:16;94258.75;;;36.00;32.88
5879;BME280;2965;42.640;23.370;2022-08-18T13:02:41;94268.56;;;35.33;33.96
5879;BME280;2965;42.640;23.370;2022-08-18T13:05:07;94250.84;;;35.95;33.19
5879;BME280;2965;42.640;23.370;2022-08-18T13:07:32;94249.81;;;35.56;33.26
5879;BME280;2965;42.640;23.370;2022-08-18T13:09:58;94250.59;;;35.56;35.18
5879;BME280;2965;42.640;23.370;2022-08-18T13:12:23;94246.16;;;35.64;38.38
5879;BME280;2965;42.640;23.370;2022-08-18T13:14:50;94251.16;;;35.94;35.22
5879;BME280;2965;42.640;23.370;2022-08-18T13:17:19;94250.16;;;36.14;34.28
5879;BME280;2965;42.640;23.370;2022-08-18T13:19:45;94246.34;;;36.66;35.92
5879;BME280;2965;42.640;23.370;2022-08-18T13:22:10;94242.94;;;36.88;35.29
5879;BME280;2965;42.640;23.370;2022-08-18T13:24:36;94233.53;;;37.02;33.52
5879;BME280;2965;42.640;23.370;2022-08-18T13:27:02;94233.16;;;36.68;34.98
5879;BME280;2965;42.640;23.370;2022-08-18T13:29:28;94236.03;;;36.08;34.45
5879;BME280;2965;42.640;23.370;2022-08-18T13:31:53;94232.00;;;35.58;34.49
5879;BME280;2965;42.640;23.370;2022-08-18T13:34:24;94233.66;;;36.07;36.43
5879;BME280;2965;42.640;23.370;2022-08-18T13:36:52;94230.09;;;36.38;35.35
5879;BME280;2965;42.640;23.370;2022-08-18T13:39:20;94229.19;;;36.30;34.47
5879;BME280;2965;42.640;23.370;2022-08-18T13:41:47;94225.56;;;36.26;32.95
5879;BME280;2965;42.640;23.370;2022-08-18T13:44:14;94221.97;;;36.22;32.95
5879;BME280;2965;42.640;23.370;2022-08-18T13:46:41;94220.25;;;36.65;33.72
5879;BME280;2965;42.640;23.370;2022-08-18T13:49:18;94231.59;;;37.02;33.56
5879;BME280;2965;42.640;23.370;2022-08-18T13:51:45;94230.44;;;37.23;33.71
5879;BME280;2965;42.640;23.370;2022-08-18T13:54:17;94223.47;;;37.64;32.80
5879;BME280;2965;42.640;23.370;2022-08-18T13:56:44;94226.69;;;37.70;31.05
5879;BME280;2965;42.640;23.370;2022-08-18T13:59:10;94231.22;;;38.04;30.10
5879;BME280;2965;42.640;23.370;2022-08-18T14:01:37;94226.41;;;37.98;31.11
5879;BME280;2965;42.640;23.370;2022-08-18T14:04:04;94211.31;;;37.81;31.93
5879;BME280;2965;42.640;23.370;2022-08-18T14:06:29;94214.53;;;37.86;32.17
5879;BME280;2965;42.640;23.370;2022-08-18T14:08:55;94215.81;;;37.93;32.16
5879;BME280;2965;42.640;23.370;2022-08-18T14:11:26;94210.78;;;37.75;33.43
5879;BME280;2965;42.640;23.370;2022-08-18T14:13:53;94214.16;;;37.26;31.00
5879;BME280;2965;42.640;23.370;2022-08-18T14:16:19;94212.72;;;36.94;31.13
5879;BME280;2965;42.640;23.370;2022-08-18T14:18:46;94214.09;;;37.42;34.35
5879;BME280;2965;42.640;23.370;2022-08-18T14:21:41;94212.41;;;37.57;31.46
5879;BME280;2965;42.640;23.370;2022-08-18T14:24:25;94207.81;;;37.61;31.65
5879;BME280;2965;42.640;23.370;2022-08-18T14:27:09;94205.84;;;37.39;31.31
5879;BME280;2965;42.640;23.370;2022-08-18T14:29:35;94208.84;;;37.53;31.02
5879;BME280;2965;42.640;23.370;2022-08-18T14:32:00;94205.50;;;37.63;30.36
5879;BME280;2965;42.640;23.370;2022-08-18T14:34:26;94207.31;;;37.98;31.79
5879;BME280;2965;42.640;23.370;2022-08-18T14:36:51;94211.50;;;37.92;30.76
5879;BME280;2965;42.640;23.370;2022-08-18T14:39:17;94202.63;;;37.98;31.34
5879;BME280;2965;42.640;23.370;2022-08-18T14:41:42;94202.09;;;38.35;32.33
5879;BME280;2965;42.640;23.370;2022-08-18T14:44:07;94204.00;;;38.08;30.72
5879;BME280;2965;42.640;23.370;2022-08-18T14:46:35;94206.91;;;37.96;31.72
5879;BME280;2965;42.640;23.370;2022-08-18T14:49:00;94202.63;;;38.21;33.60
5879;BME280;2965;42.640;23.370;2022-08-18T14:51:26;94203.00;;;37.97;31.44
5879;BME280;2965;42.640;23.370;2022-08-18T14:53:51;94200.50;;;38.11;31.73
5879;BME280;2965;42.640;23.370;2022-08-18T14:56:17;94196.41;;;37.98;30.76
5879;BME280;2965;42.640;23.370;2022-08-18T14:58:43;94203.00;;;38.73;30.97
5879;BME280;2965;42.640;23.370;2022-08-18T15:01:09;94210.63;;;38.33;29.82
5879;BME280;2965;42.640;23.370;2022-08-18T15:03:36;94208.22;;;37.82;32.28
5879;BME280;2965;42.640;23.370;2022-08-18T15:06:03;94204.78;;;37.66;30.90
5879;BME280;2965;42.640;23.370;2022-08-18T15:08:30;94201.25;;;37.43;32.48
5879;BME280;2965;42.640;23.370;2022-08-18T15:10:56;94202.09;;;37.27;32.06
5879;BME280;2965;42.640;23.370;2022-08-18T15:13:23;94197.06;;;36.91;32.14
5879;BME280;2965;42.640;23.370;2022-08-18T15:15:49;94202.50;;;36.71;33.23
5879;BME280;2965;42.640;23.370;2022-08-18T15:18:15;94208.63;;;36.17;32.89
5879;BME280;2965;42.640;23.370;2022-08-18T15:20:41;94210.13;;;36.30;33.60
5879;BME280;2965;42.640;23.370;2022-08-18T15:23:33;94200.84;;;36.00;34.01
5879;BME280;2965;42.640;23.370;2022-08-18T15:26:21;94206.00;;;36.05;33.92
5879;BME280;2965;42.640;23.370;2022-08-18T15:28:48;94207.03;;;35.84;34.60
5879;BME280;2965;42.640;23.370;2022-08-18T15:31:14;94204.59;;;36.11;34.08
5879;BME280;2965;42.640;23.370;2022-08-18T15:33:39;94208.19;;;36.15;33.24
5879;BME280;2965;42.640;23.370;2022-08-18T15:36:06;94209.06;;;36.03;33.45
5879;BME280;2965;42.640;23.370;2022-08-18T15:38:31;94208.41;;;35.94;33.29
5879;BME280;2965;42.640;23.370;2022-08-18T15:40:59;94210.13;;;35.99;33.00
5879;BME280;2965;42.640;23.370;2022-08-18T15:43:26;94213.22;;;36.13;32.89
5879;BME280;2965;42.640;23.370;2022-08-18T15:45:52;94207.22;;;36.23;33.58
5879;BME280;2965;42.640;23.370;2022-08-18T15:48:20;94207.03;;;36.16;34.40
5879;BME280;2965;42.640;23.370;2022-08-18T15:50:46;94197.25;;;35.96;33.92
5879;BME280;2965;42.640;23.370;2022-08-18T15:53:15;94205.53;;;35.71;34.77